sensor_id;sensor_type;location;lat;lon;timestamp;P1;durP1;ratioP1;P2;durP2;ratioP2
10403;SDS011;5248;47.374;8.486;2023-05-24T00:00:25;11.87;;;10.87;;
10403;SDS011;5248;47.374;8.486;2023-05-24T00:02:52;12.55;;;11.45;;
10403;SDS011;5248;47.374;8.486;2023-05-24T00:05:21;12.53;;;11.33;;
10403;SDS011;5248;47.374;8.486;2023-05-24T00:07:48;12.38;;;11.07;;
10403;SDS011;5248;47.374;8.486;2023-05-24T00:10:14;11.87;;;10.67;;
10403;SDS011;5248;47.374;8.486;2023-05-24T00:12:41;13.02;;;11.70;;
10403;SDS011;5248;47.374;8.486;2023-05-24T00:15:09;13.27;;;11.97;;
10403;SDS011;5248;47.374;8.486;2023-05-24T00:17:35;12.10;;;10.90;;
10403;SDS011;5248;47.374;8.486;2023-05-24T00:20:06;12.80;;;11.50;;
10403;SDS011;5248;47.374;8.486;2023-05-24T00:22:34;12.13;;;11.03;;
10403;SDS011;5248;47.374;8.486;2023-05-24T00:25:01;12.77;;;11.57;;
10403;SDS011;5248;47.374;8.486;2023-05-24T00:27:28;13.53;;;12.23;;
10403;SDS011;5248;47.374;8.486;2023-05-24T00:29:56;13.95;;;12.43;;
10403;SDS011;5248;47.374;8.486;2023-05-24T00:32:23;13.13;;;11.83;;
10403;SDS011;5248;47.374;8.486;2023-05-24T00:34:50;12.53;;;11.40;;
10403;SDS011;5248;47.374;8.486;2023-05-24T00:37:16;11.43;;;10.52;;
10403;SDS011;5248;47.374;8.486;2023-05-24T00:39:43;11.80;;;10.80;;
10403;SDS011;5248;47.374;8.486;2023-05-24T00:42:09;12.63;;;11.43;;
10403;SDS011;5248;47.374;8.486;2023-05-24T00:44:36;12.17;;;10.90;;
10403;SDS011;5248;47.374;8.486;2023-05-24T00:47:02;13.13;;;11.87;;
10403;SDS011;5248;47.374;8.486;2023-05-24T00:49:30;12.43;;;11.23;;
10403;SDS011;5248;47.374;8.486;2023-05-24T00:51:57;13.10;;;11.83;;
10403;SDS011;5248;47.374;8.486;2023-05-24T00:54:24;12.57;;;11.27;;
10403;SDS011;5248;47.374;8.486;2023-05-24T00:56:51;12.77;;;11.48;;
10403;SDS011;5248;47.374;8.486;2023-05-24T00:59:18;14.07;;;12.63;;
10403;SDS011;5248;47.374;8.486;2023-05-24T01:01:45;13.27;;;12.07;;
10403;SDS011;5248;47.374;8.486;2023-05-24T01:04:11;13.07;;;11.87;;
10403;SDS011;5248;47.374;8.486;2023-05-24T01:06:42;12.57;;;11.47;;
10403;SDS011;5248;47.374;8.486;2023-05-24T01:09:16;12.47;;;11.37;;
10403;SDS011;5248;47.374;8.486;2023-05-24T01:11:49;13.87;;;12.57;;
10403;SDS011;5248;47.374;8.486;2023-05-24T01:14:25;12.57;;;11.57;;
10403;SDS011;5248;47.374;8.486;2023-05-24T01:16:55;13.53;;;12.30;;
10403;SDS011;5248;47.374;8.486;2023-05-24T01:19:39;14.07;;;12.77;;
10403;SDS011;5248;47.374;8.486;2023-05-24T01:22:16;13.63;;;12.33;;
10403;SDS011;5248;47.374;8.486;2023-05-24T01:24:52;13.23;;;11.93;;
10403;SDS011;5248;47.374;8.486;2023-05-24T01:27:28;14.23;;;12.83;;
10403;SDS011;5248;47.374;8.486;2023-05-24T01:29:55;14.20;;;12.97;;
10403;SDS011;5248;47.374;8.486;2023-05-24T01:32:23;14.10;;;12.70;;
10403;SDS011;5248;47.374;8.486;2023-05-24T01:34:49;14.07;;;12.80;;
10403;SDS011;5248;47.374;8.486;2023-05-24T01:37:16;14.53;;;13.10;;
10403;SDS011;5248;47.374;8.486;2023-05-24T01:39:42;13.43;;;12.23;;
10403;SDS011;5248;47.374;8.486;2023-05-24T01:42:10;17.23;;;13.37;;
10403;SDS011;5248;47.374;8.486;2023-05-24T01:44:47;14.47;;;13.07;;
10403;SDS011;5248;47.374;8.486;2023-05-24T01:47:19;13.13;;;12.03;;
10403;SDS011;5248;47.374;8.486;2023-05-24T01:49:52;13.80;;;12.53;;
10403;SDS011;5248;47.374;8.486;2023-05-24T01:52:21;14.70;;;13.10;;
10403;SDS011;5248;47.374;8.486;2023-05-24T01:54:50;14.90;;;13.00;;
10403;SDS011;5248;47.374;8.486;2023-05-24T01:57:17;15.17;;;13.67;;
10403;SDS011;5248;47.374;8.486;2023-05-24T01:59:46;14.13;;;12.83;;
10403;SDS011;5248;47.374;8.486;2023-05-24T02:02:13;14.67;;;13.17;;
10403;SDS011;5248;47.374;8.486;2023-05-24T02:04:39;14.83;;;13.43;;
10403;SDS011;5248;47.374;8.486;2023-05-24T02:07:06;14.70;;;13.30;;
10403;SDS011;5248;47.374;8.486;2023-05-24T02:09:32;14.43;;;13.10;;
10403;SDS011;5248;47.374;8.486;2023-05-24T02:11:59;14.43;;;13.13;;
10403;SDS011;5248;47.374;8.486;2023-05-24T02:14:26;14.70;;;13.20;;
10403;SDS011;5248;47.374;8.486;2023-05-24T02:16:54;14.50;;;13.03;;
10403;SDS011;5248;47.374;8.486;2023-05-24T02:19:22;14.63;;;13.13;;
10403;SDS011;5248;47.374;8.486;2023-05-24T02:21:49;14.50;;;13.20;;
10403;SDS011;5248;47.374;8.486;2023-05-24T02:24:17;15.10;;;13.60;;
10403;SDS011;5248;47.374;8.486;2023-05-24T02:26:43;15.40;;;13.90;;
10403;SDS011;5248;47.374;8.486;2023-05-24T02:29:10;15.67;;;14.07;;
10403;SDS011;5248;47.374;8.486;2023-05-24T02:31:36;16.27;;;13.97;;
10403;SDS011;5248;47.374;8.486;2023-05-24T02:34:04;15.00;;;13.47;;
10403;SDS011;5248;47.374;8.486;2023-05-24T02:36:31;15.00;;;13.53;;
10403;SDS011;5248;47.374;8.486;2023-05-24T02:39:00;15.07;;;13.67;;
10403;SDS011;5248;47.374;8.486;2023-05-24T02:41:28;15.30;;;13.53;;
10403;SDS011;5248;47.374;8.486;2023-05-24T02:43:54;15.07;;;13.77;;
10403;SDS011;5248;47.374;8.486;2023-05-24T02:46:20;14.30;;;12.90;;
10403;SDS011;5248;47.374;8.486;2023-05-24T02:48:47;14.60;;;13.30;;
10403;SDS011;5248;47.374;8.486;2023-05-24T02:51:15;14.63;;;13.23;;
10403;SDS011;5248;47.374;8.486;2023-05-24T02:53:41;14.53;;;13.23;;
10403;SDS011;5248;47.374;8.486;2023-05-24T02:56:09;15.57;;;14.00;;
10403;SDS011;5248;47.374;8.486;2023-05-24T02:58:37;14.77;;;13.33;;
10403;SDS011;5248;47.374;8.486;2023-05-24T03:01:04;14.87;;;13.37;;
10403;SDS011;5248;47.374;8.486;2023-05-24T03:03:32;15.17;;;13.80;;
10403;SDS011;5248;47.374;8.486;2023-05-24T03:05:58;15.53;;;14.07;;
10403;SDS011;5248;47.374;8.486;2023-05-24T03:08:27;15.63;;;14.10;;
10403;SDS011;5248;47.374;8.486;2023-05-24T03:10:53;15.50;;;14.00;;
10403;SDS011;5248;47.374;8.486;2023-05-24T03:13:20;15.33;;;13.73;;
10403;SDS011;5248;47.374;8.486;2023-05-24T03:15:46;15.73;;;13.63;;
10403;SDS011;5248;47.374;8.486;2023-05-24T03:18:13;15.43;;;13.87;;
10403;SDS011;5248;47.374;8.486;2023-05-24T03:20:39;15.93;;;14.37;;
10403;SDS011;5248;47.374;8.486;2023-05-24T03:23:06;15.23;;;13.73;;
10403;SDS011;5248;47.374;8.486;2023-05-24T03:25:36;15.33;;;13.93;;
10403;SDS011;5248;47.374;8.486;2023-05-24T03:28:02;15.83;;;14.27;;
10403;SDS011;5248;47.374;8.486;2023-05-24T03:30:29;15.77;;;14.30;;
10403;SDS011;5248;47.374;8.486;2023-05-24T03:32:55;15.17;;;13.67;;
10403;SDS011;5248;47.374;8.486;2023-05-24T03:35:22;15.30;;;13.80;;
10403;SDS011;5248;47.374;8.486;2023-05-24T03:37:48;16.10;;;14.50;;
10403;SDS011;5248;47.374;8.486;2023-05-24T03:40:15;16.70;;;15.17;;
10403;SDS011;5248;47.374;8.486;2023-05-24T03:42:44;15.70;;;14.07;;
10403;SDS011;5248;47.374;8.486;2023-05-24T03:45:10;14.80;;;13.40;;
10403;SDS011;5248;47.374;8.486;2023-05-24T03:47:37;15.93;;;14.37;;
10403;SDS011;5248;47.374;8.486;2023-05-24T03:50:04;15.47;;;13.87;;
10403;SDS011;5248;47.374;8.486;2023-05-24T03:52:31;14.73;;;13.40;;
10403;SDS011;5248;47.374;8.486;2023-05-24T03:54:57;14.97;;;13.47;;
10403;SDS011;5248;47.374;8.486;2023-05-24T03:57:24;14.93;;;13.43;;
10403;SDS011;5248;47.374;8.486;2023-05-24T03:59:54;14.87;;;13.37;;
10403;SDS011;5248;47.374;8.486;2023-05-24T04:02:21;18.47;;;14.63;;
10403;SDS011;5248;47.374;8.486;2023-05-24T04:04:47;13.87;;;12.57;;
10403;SDS011;5248;47.374;8.486;2023-05-24T04:07:14;15.17;;;13.83;;
10403;SDS011;5248;47.374;8.486;2023-05-24T04:09:40;14.43;;;13.00;;
10403;SDS011;5248;47.374;8.486;2023-05-24T04:12:07;14.83;;;13.33;;
10403;SDS011;5248;47.374;8.486;2023-05-24T04:14:33;15.17;;;13.77;;
10403;SDS011;5248;47.374;8.486;2023-05-24T04:17:01;15.23;;;13.73;;
10403;SDS011;5248;47.374;8.486;2023-05-24T04:19:29;15.53;;;13.30;;
10403;SDS011;5248;47.374;8.486;2023-05-24T04:21:57;15.13;;;13.70;;
10403;SDS011;5248;47.374;8.486;2023-05-24T04:24:23;14.00;;;12.60;;
10403;SDS011;5248;47.374;8.486;2023-05-24T04:26:52;14.37;;;12.97;;
10403;SDS011;5248;47.374;8.486;2023-05-24T04:29:18;14.57;;;13.03;;
10403;SDS011;5248;47.374;8.486;2023-05-24T04:31:45;15.13;;;13.60;;
10403;SDS011;5248;47.374;8.486;2023-05-24T04:34:14;15.60;;;14.00;;
10403;SDS011;5248;47.374;8.486;2023-05-24T04:36:40;14.63;;;13.23;;
10403;SDS011;5248;47.374;8.486;2023-05-24T04:39:07;14.23;;;12.77;;
10403;SDS011;5248;47.374;8.486;2023-05-24T04:41:33;15.20;;;13.80;;
10403;SDS011;5248;47.374;8.486;2023-05-24T04:44:01;13.10;;;11.97;;
10403;SDS011;5248;47.374;8.486;2023-05-24T04:46:27;16.30;;;14.60;;
10403;SDS011;5248;47.374;8.486;2023-05-24T04:48:55;16.67;;;14.97;;
10403;SDS011;5248;47.374;8.486;2023-05-24T04:51:23;14.93;;;13.53;;
10403;SDS011;5248;47.374;8.486;2023-05-24T04:53:49;14.00;;;12.63;;
10403;SDS011;5248;47.374;8.486;2023-05-24T04:56:15;14.87;;;13.50;;
10403;SDS011;5248;47.374;8.486;2023-05-24T04:58:43;15.10;;;13.60;;
10403;SDS011;5248;47.374;8.486;2023-05-24T05:01:12;15.03;;;13.53;;
10403;SDS011;5248;47.374;8.486;2023-05-24T05:03:38;15.07;;;13.47;;
10403;SDS011;5248;47.374;8.486;2023-05-24T05:06:05;15.10;;;13.57;;
10403;SDS011;5248;47.374;8.486;2023-05-24T05:08:33;14.77;;;13.37;;
10403;SDS011;5248;47.374;8.486;2023-05-24T05:10:59;14.97;;;13.37;;
10403;SDS011;5248;47.374;8.486;2023-05-24T05:13:26;14.77;;;12.77;;
10403;SDS011;5248;47.374;8.486;2023-05-24T05:15:54;14.70;;;13.30;;
10403;SDS011;5248;47.374;8.486;2023-05-24T05:18:20;13.70;;;12.50;;
10403;SDS011;5248;47.374;8.486;2023-05-24T05:20:47;13.90;;;12.63;;
10403;SDS011;5248;47.374;8.486;2023-05-24T05:23:13;13.17;;;11.90;;
10403;SDS011;5248;47.374;8.486;2023-05-24T05:25:41;14.33;;;12.90;;
10403;SDS011;5248;47.374;8.486;2023-05-24T05:28:08;13.10;;;11.80;;
10403;SDS011;5248;47.374;8.486;2023-05-24T05:30:36;13.10;;;11.90;;
10403;SDS011;5248;47.374;8.486;2023-05-24T05:33:03;13.70;;;12.40;;
10403;SDS011;5248;47.374;8.486;2023-05-24T05:35:30;13.43;;;12.03;;
10403;SDS011;5248;47.374;8.486;2023-05-24T05:37:56;13.07;;;11.97;;
10403;SDS011;5248;47.374;8.486;2023-05-24T05:40:23;13.20;;;12.00;;
10403;SDS011;5248;47.374;8.486;2023-05-24T05:42:50;13.53;;;12.20;;
10403;SDS011;5248;47.374;8.486;2023-05-24T05:45:17;13.53;;;12.33;;
10403;SDS011;5248;47.374;8.486;2023-05-24T05:47:43;13.77;;;12.50;;
10403;SDS011;5248;47.374;8.486;2023-05-24T05:50:10;13.50;;;12.27;;
10403;SDS011;5248;47.374;8.486;2023-05-24T05:52:36;12.93;;;11.77;;
10403;SDS011;5248;47.374;8.486;2023-05-24T05:55:03;12.63;;;11.43;;
10403;SDS011;5248;47.374;8.486;2023-05-24T05:57:30;12.30;;;11.17;;
10403;SDS011;5248;47.374;8.486;2023-05-24T05:59:58;12.93;;;11.63;;
10403;SDS011;5248;47.374;8.486;2023-05-24T06:02:25;12.37;;;11.13;;
10403;SDS011;5248;47.374;8.486;2023-05-24T06:04:51;12.60;;;11.33;;
10403;SDS011;5248;47.374;8.486;2023-05-24T06:07:18;11.33;;;10.43;;
10403;SDS011;5248;47.374;8.486;2023-05-24T06:09:44;11.17;;;10.17;;
10403;SDS011;5248;47.374;8.486;2023-05-24T06:12:11;11.23;;;10.27;;
10403;SDS011;5248;47.374;8.486;2023-05-24T06:14:37;11.23;;;10.23;;
10403;SDS011;5248;47.374;8.486;2023-05-24T06:17:05;12.13;;;11.13;;
10403;SDS011;5248;47.374;8.486;2023-05-24T06:19:32;11.37;;;10.37;;
10403;SDS011;5248;47.374;8.486;2023-05-24T06:21:58;11.20;;;10.30;;
10403;SDS011;5248;47.374;8.486;2023-05-24T06:24:25;10.70;;;9.80;;
10403;SDS011;5248;47.374;8.486;2023-05-24T06:26:52;11.10;;;10.17;;
10403;SDS011;5248;47.374;8.486;2023-05-24T06:29:19;11.93;;;10.47;;
10403;SDS011;5248;47.374;8.486;2023-05-24T06:31:46;11.50;;;10.40;;
10403;SDS011;5248;47.374;8.486;2023-05-24T06:34:14;10.33;;;9.27;;
10403;SDS011;5248;47.374;8.486;2023-05-24T06:36:41;11.07;;;10.07;;
10403;SDS011;5248;47.374;8.486;2023-05-24T06:39:08;10.37;;;9.37;;
10403;SDS011;5248;47.374;8.486;2023-05-24T06:41:35;10.40;;;9.40;;
10403;SDS011;5248;47.374;8.486;2023-05-24T06:44:01;12.00;;;10.23;;
10403;SDS011;5248;47.374;8.486;2023-05-24T06:46:28;10.93;;;10.03;;
10403;SDS011;5248;47.374;8.486;2023-05-24T06:48:54;10.80;;;9.83;;
10403;SDS011;5248;47.374;8.486;2023-05-24T06:51:22;11.40;;;10.30;;
10403;SDS011;5248;47.374;8.486;2023-05-24T06:53:51;10.70;;;9.70;;
10403;SDS011;5248;47.374;8.486;2023-05-24T06:56:17;15.17;;;12.13;;
10403;SDS011;5248;47.374;8.486;2023-05-24T06:58:44;9.87;;;9.00;;
10403;SDS011;5248;47.374;8.486;2023-05-24T07:01:10;9.93;;;9.03;;
10403;SDS011;5248;47.374;8.486;2023-05-24T07:03:38;10.20;;;9.40;;
10403;SDS011;5248;47.374;8.486;2023-05-24T07:06:05;10.47;;;8.73;;
10403;SDS011;5248;47.374;8.486;2023-05-24T07:08:35;10.40;;;9.40;;
10403;SDS011;5248;47.374;8.486;2023-05-24T07:11:01;9.77;;;8.87;;
10403;SDS011;5248;47.374;8.486;2023-05-24T07:13:28;8.83;;;8.13;;
10403;SDS011;5248;47.374;8.486;2023-05-24T07:15:54;9.33;;;8.63;;
10403;SDS011;5248;47.374;8.486;2023-05-24T07:18:21;9.17;;;8.37;;
10403;SDS011;5248;47.374;8.486;2023-05-24T07:20:47;9.87;;;8.93;;
10403;SDS011;5248;47.374;8.486;2023-05-24T07:23:14;8.77;;;8.07;;
10403;SDS011;5248;47.374;8.486;2023-05-24T07:25:42;9.03;;;8.33;;
10403;SDS011;5248;47.374;8.486;2023-05-24T07:28:08;8.68;;;7.93;;
10403;SDS011;5248;47.374;8.486;2023-05-24T07:30:35;8.53;;;7.93;;
10403;SDS011;5248;47.374;8.486;2023-05-24T07:33:03;8.50;;;7.87;;
10403;SDS011;5248;47.374;8.486;2023-05-24T07:35:29;9.13;;;8.27;;
10403;SDS011;5248;47.374;8.486;2023-05-24T07:37:56;9.83;;;9.00;;
10403;SDS011;5248;47.374;8.486;2023-05-24T07:40:23;8.33;;;7.67;;
10403;SDS011;5248;47.374;8.486;2023-05-24T07:42:51;9.63;;;8.70;;
10403;SDS011;5248;47.374;8.486;2023-05-24T07:45:18;9.07;;;8.17;;
10403;SDS011;5248;47.374;8.486;2023-05-24T07:47:44;8.40;;;7.60;;
10403;SDS011;5248;47.374;8.486;2023-05-24T07:50:11;8.97;;;8.07;;
10403;SDS011;5248;47.374;8.486;2023-05-24T07:52:37;8.57;;;7.77;;
10403;SDS011;5248;47.374;8.486;2023-05-24T07:55:04;9.30;;;8.40;;
10403;SDS011;5248;47.374;8.486;2023-05-24T07:57:31;8.90;;;8.10;;
10403;SDS011;5248;47.374;8.486;2023-05-24T07:59:59;9.20;;;8.40;;
10403;SDS011;5248;47.374;8.486;2023-05-24T08:02:31;8.80;;;8.03;;
10403;SDS011;5248;47.374;8.486;2023-05-24T08:04:57;9.97;;;8.60;;
10403;SDS011;5248;47.374;8.486;2023-05-24T08:07:24;8.63;;;7.70;;
10403;SDS011;5248;47.374;8.486;2023-05-24T08:09:51;8.13;;;7.43;;
10403;SDS011;5248;47.374;8.486;2023-05-24T08:12:17;9.17;;;8.37;;
10403;SDS011;5248;47.374;8.486;2023-05-24T08:14:44;9.43;;;8.60;;
10403;SDS011;5248;47.374;8.486;2023-05-24T08:17:12;8.80;;;8.10;;
10403;SDS011;5248;47.374;8.486;2023-05-24T08:19:38;8.60;;;7.90;;
10403;SDS011;5248;47.374;8.486;2023-05-24T08:22:05;9.20;;;8.40;;
10403;SDS011;5248;47.374;8.486;2023-05-24T08:24:32;8.60;;;7.70;;
10403;SDS011;5248;47.374;8.486;2023-05-24T08:26:58;10.07;;;9.00;;
10403;SDS011;5248;47.374;8.486;2023-05-24T08:29:25;9.83;;;8.93;;
10403;SDS011;5248;47.374;8.486;2023-05-24T08:31:52;9.87;;;8.17;;
10403;SDS011;5248;47.374;8.486;2023-05-24T08:34:20;9.23;;;8.37;;
10403;SDS011;5248;47.374;8.486;2023-05-24T08:36:46;9.47;;;8.50;;
10403;SDS011;5248;47.374;8.486;2023-05-24T08:39:14;9.07;;;8.27;;
10403;SDS011;5248;47.374;8.486;2023-05-24T08:41:40;9.57;;;8.70;;
10403;SDS011;5248;47.374;8.486;2023-05-24T08:44:07;9.27;;;8.47;;
10403;SDS011;5248;47.374;8.486;2023-05-24T08:46:34;10.13;;;8.70;;
10403;SDS011;5248;47.374;8.486;2023-05-24T08:49:01;8.97;;;8.27;;
10403;SDS011;5248;47.374;8.486;2023-05-24T08:51:29;9.30;;;8.50;;
10403;SDS011;5248;47.374;8.486;2023-05-24T08:53:56;9.33;;;8.50;;
10403;SDS011;5248;47.374;8.486;2023-05-24T08:56:24;8.20;;;7.40;;
10403;SDS011;5248;47.374;8.486;2023-05-24T08:58:52;9.87;;;8.33;;
10403;SDS011;5248;47.374;8.486;2023-05-24T09:01:19;9.60;;;8.27;;
10403;SDS011;5248;47.374;8.486;2023-05-24T09:03:46;8.43;;;7.63;;
10403;SDS011;5248;47.374;8.486;2023-05-24T09:06:14;8.70;;;7.90;;
10403;SDS011;5248;47.374;8.486;2023-05-24T09:08:43;8.77;;;7.97;;
10403;SDS011;5248;47.374;8.486;2023-05-24T09:11:10;8.57;;;7.77;;
10403;SDS011;5248;47.374;8.486;2023-05-24T09:13:37;8.73;;;7.93;;
10403;SDS011;5248;47.374;8.486;2023-05-24T09:16:04;9.10;;;7.03;;
10403;SDS011;5248;47.374;8.486;2023-05-24T09:18:31;7.93;;;7.03;;
10403;SDS011;5248;47.374;8.486;2023-05-24T09:20:57;7.80;;;7.10;;
10403;SDS011;5248;47.374;8.486;2023-05-24T09:23:24;7.47;;;6.70;;
10403;SDS011;5248;47.374;8.486;2023-05-24T09:25:52;7.73;;;7.03;;
10403;SDS011;5248;47.374;8.486;2023-05-24T09:28:19;7.70;;;7.00;;
10403;SDS011;5248;47.374;8.486;2023-05-24T09:30:56;8.97;;;8.07;;
10403;SDS011;5248;47.374;8.486;2023-05-24T09:33:24;7.70;;;7.00;;
10403;SDS011;5248;47.374;8.486;2023-05-24T09:35:55;7.43;;;6.53;;
10403;SDS011;5248;47.374;8.486;2023-05-24T09:38:23;7.83;;;6.93;;
10403;SDS011;5248;47.374;8.486;2023-05-24T09:40:57;10.83;;;6.87;;
10403;SDS011;5248;47.374;8.486;2023-05-24T09:43:28;7.73;;;7.03;;
10403;SDS011;5248;47.374;8.486;2023-05-24T09:45:55;9.00;;;7.73;;
10403;SDS011;5248;47.374;8.486;2023-05-24T09:48:24;6.97;;;6.37;;
10403;SDS011;5248;47.374;8.486;2023-05-24T09:50:58;8.10;;;6.60;;
10403;SDS011;5248;47.374;8.486;2023-05-24T09:53:28;7.37;;;6.60;;
10403;SDS011;5248;47.374;8.486;2023-05-24T09:55:54;7.70;;;7.00;;
10403;SDS011;5248;47.374;8.486;2023-05-24T09:58:22;8.40;;;7.00;;
10403;SDS011;5248;47.374;8.486;2023-05-24T10:01:01;7.00;;;6.30;;
10403;SDS011;5248;47.374;8.486;2023-05-24T10:03:29;8.70;;;7.07;;
10403;SDS011;5248;47.374;8.486;2023-05-24T10:05:55;7.57;;;6.77;;
10403;SDS011;5248;47.374;8.486;2023-05-24T10:08:23;6.97;;;6.37;;
10403;SDS011;5248;47.374;8.486;2023-05-24T10:10:51;6.70;;;6.10;;
10403;SDS011;5248;47.374;8.486;2023-05-24T10:13:18;6.60;;;6.00;;
10403;SDS011;5248;47.374;8.486;2023-05-24T10:15:48;7.73;;;7.03;;
10403;SDS011;5248;47.374;8.486;2023-05-24T10:18:15;8.07;;;6.87;;
10403;SDS011;5248;47.374;8.486;2023-05-24T10:20:42;7.15;;;6.43;;
10403;SDS011;5248;47.374;8.486;2023-05-24T10:23:09;7.17;;;6.47;;
10403;SDS011;5248;47.374;8.486;2023-05-24T10:25:37;6.70;;;6.10;;
10403;SDS011;5248;47.374;8.486;2023-05-24T10:28:09;7.37;;;6.63;;
10403;SDS011;5248;47.374;8.486;2023-05-24T10:30:43;8.77;;;6.73;;
10403;SDS011;5248;47.374;8.486;2023-05-24T10:33:13;6.67;;;6.03;;
10403;SDS011;5248;47.374;8.486;2023-05-24T10:35:40;6.87;;;6.17;;
10403;SDS011;5248;47.374;8.486;2023-05-24T10:38:07;6.72;;;6.13;;
10403;SDS011;5248;47.374;8.486;2023-05-24T10:40:35;7.07;;;6.47;;
10403;SDS011;5248;47.374;8.486;2023-05-24T10:43:06;6.68;;;6.05;;
10403;SDS011;5248;47.374;8.486;2023-05-24T10:45:35;6.75;;;6.10;;
10403;SDS011;5248;47.374;8.486;2023-05-24T10:51:00;6.80;;;6.20;;
10403;SDS011;5248;47.374;8.486;2023-05-24T10:53:26;7.20;;;6.50;;
10403;SDS011;5248;47.374;8.486;2023-05-24T10:55:54;7.40;;;6.25;;
10403;SDS011;5248;47.374;8.486;2023-05-24T10:58:21;6.80;;;6.20;;
10403;SDS011;5248;47.374;8.486;2023-05-24T11:00:52;7.38;;;6.57;;
10403;SDS011;5248;47.374;8.486;2023-05-24T11:03:18;6.43;;;5.83;;
10403;SDS011;5248;47.374;8.486;2023-05-24T11:05:51;6.57;;;5.97;;
10403;SDS011;5248;47.374;8.486;2023-05-24T11:08:22;9.00;;;7.40;;
10403;SDS011;5248;47.374;8.486;2023-05-24T11:10:50;7.13;;;6.40;;
10403;SDS011;5248;47.374;8.486;2023-05-24T11:13:28;7.27;;;6.57;;
10403;SDS011;5248;47.374;8.486;2023-05-24T11:15:55;8.17;;;6.70;;
10403;SDS011;5248;47.374;8.486;2023-05-24T11:18:22;8.37;;;7.57;;
10403;SDS011;5248;47.374;8.486;2023-05-24T11:20:49;7.97;;;7.17;;
10403;SDS011;5248;47.374;8.486;2023-05-24T11:23:17;7.97;;;6.57;;
10403;SDS011;5248;47.374;8.486;2023-05-24T11:25:45;7.83;;;6.90;;
10403;SDS011;5248;47.374;8.486;2023-05-24T11:28:12;7.63;;;6.90;;
10403;SDS011;5248;47.374;8.486;2023-05-24T11:30:39;9.13;;;6.73;;
10403;SDS011;5248;47.374;8.486;2023-05-24T11:33:12;7.90;;;7.10;;
10403;SDS011;5248;47.374;8.486;2023-05-24T11:35:40;7.93;;;7.23;;
10403;SDS011;5248;47.374;8.486;2023-05-24T11:38:08;9.17;;;7.63;;
10403;SDS011;5248;47.374;8.486;2023-05-24T11:40:37;8.03;;;7.33;;
10403;SDS011;5248;47.374;8.486;2023-05-24T11:43:08;9.60;;;7.93;;
10403;SDS011;5248;47.374;8.486;2023-05-24T11:45:37;7.90;;;7.07;;
10403;SDS011;5248;47.374;8.486;2023-05-24T11:48:05;8.40;;;7.53;;
10403;SDS011;5248;47.374;8.486;2023-05-24T11:50:35;7.80;;;7.10;;
10403;SDS011;5248;47.374;8.486;2023-05-24T11:53:03;9.43;;;7.47;;
10403;SDS011;5248;47.374;8.486;2023-05-24T11:55:29;10.23;;;7.70;;
10403;SDS011;5248;47.374;8.486;2023-05-24T11:57:58;9.13;;;8.00;;
10403;SDS011;5248;47.374;8.486;2023-05-24T12:00:26;8.63;;;7.83;;
10403;SDS011;5248;47.374;8.486;2023-05-24T12:02:55;8.77;;;7.87;;
10403;SDS011;5248;47.374;8.486;2023-05-24T12:05:22;8.83;;;7.40;;
10403;SDS011;5248;47.374;8.486;2023-05-24T12:07:58;8.90;;;8.00;;
10403;SDS011;5248;47.374;8.486;2023-05-24T12:10:28;8.37;;;7.43;;
10403;SDS011;5248;47.374;8.486;2023-05-24T12:12:55;9.17;;;7.57;;
10403;SDS011;5248;47.374;8.486;2023-05-24T12:15:23;8.57;;;7.73;;
10403;SDS011;5248;47.374;8.486;2023-05-24T12:17:49;8.57;;;7.77;;
10403;SDS011;5248;47.374;8.486;2023-05-24T12:20:17;8.63;;;7.63;;
10403;SDS011;5248;47.374;8.486;2023-05-24T12:22:46;8.57;;;7.78;;
10403;SDS011;5248;47.374;8.486;2023-05-24T12:25:15;9.10;;;7.63;;
10403;SDS011;5248;47.374;8.486;2023-05-24T12:27:44;8.45;;;7.25;;
10403;SDS011;5248;47.374;8.486;2023-05-24T12:30:12;8.27;;;7.47;;
10403;SDS011;5248;47.374;8.486;2023-05-24T12:32:45;8.40;;;7.60;;
10403;SDS011;5248;47.374;8.486;2023-05-24T12:35:12;7.90;;;7.10;;
10403;SDS011;5248;47.374;8.486;2023-05-24T12:37:38;7.60;;;6.90;;
10403;SDS011;5248;47.374;8.486;2023-05-24T12:40:13;9.60;;;7.30;;
10403;SDS011;5248;47.374;8.486;2023-05-24T12:42:42;9.27;;;6.85;;
10403;SDS011;5248;47.374;8.486;2023-05-24T12:45:09;8.30;;;7.05;;
10403;SDS011;5248;47.374;8.486;2023-05-24T12:47:36;8.98;;;7.60;;
10403;SDS011;5248;47.374;8.486;2023-05-24T12:50:04;8.10;;;6.63;;
10403;SDS011;5248;47.374;8.486;2023-05-24T12:52:31;11.20;;;7.30;;
10403;SDS011;5248;47.374;8.486;2023-05-24T12:54:58;7.72;;;6.90;;
10403;SDS011;5248;47.374;8.486;2023-05-24T12:57:24;7.55;;;6.90;;
10403;SDS011;5248;47.374;8.486;2023-05-24T12:59:51;8.10;;;7.28;;
10403;SDS011;5248;47.374;8.486;2023-05-24T13:02:17;8.20;;;7.43;;
10403;SDS011;5248;47.374;8.486;2023-05-24T13:04:44;8.10;;;7.30;;
10403;SDS011;5248;47.374;8.486;2023-05-24T13:07:11;8.65;;;7.85;;
10403;SDS011;5248;47.374;8.486;2023-05-24T13:09:38;8.48;;;7.57;;
10403;SDS011;5248;47.374;8.486;2023-05-24T13:12:05;9.80;;;7.50;;
10403;SDS011;5248;47.374;8.486;2023-05-24T13:14:32;8.25;;;7.43;;
10403;SDS011;5248;47.374;8.486;2023-05-24T13:16:59;9.38;;;8.40;;
10403;SDS011;5248;47.374;8.486;2023-05-24T13:19:25;11.23;;;7.80;;
10403;SDS011;5248;47.374;8.486;2023-05-24T13:21:52;9.27;;;6.63;;
10403;SDS011;5248;47.374;8.486;2023-05-24T13:24:20;9.10;;;8.25;;
10403;SDS011;5248;47.374;8.486;2023-05-24T13:26:47;8.87;;;8.07;;
10403;SDS011;5248;47.374;8.486;2023-05-24T13:29:15;9.82;;;8.13;;
10403;SDS011;5248;47.374;8.486;2023-05-24T13:31:41;8.93;;;8.10;;
10403;SDS011;5248;47.374;8.486;2023-05-24T13:34:08;10.60;;;8.53;;
10403;SDS011;5248;47.374;8.486;2023-05-24T13:36:35;9.93;;;8.17;;
10403;SDS011;5248;47.374;8.486;2023-05-24T13:39:02;11.97;;;8.50;;
10403;SDS011;5248;47.374;8.486;2023-05-24T13:41:30;9.20;;;8.23;;
10403;SDS011;5248;47.374;8.486;2023-05-24T13:43:56;8.73;;;7.82;;
10403;SDS011;5248;47.374;8.486;2023-05-24T13:46:23;7.95;;;7.15;;
10403;SDS011;5248;47.374;8.486;2023-05-24T13:48:49;9.85;;;8.85;;
10403;SDS011;5248;47.374;8.486;2023-05-24T13:51:16;9.57;;;8.23;;
10403;SDS011;5248;47.374;8.486;2023-05-24T13:53:43;10.03;;;7.87;;
10403;SDS011;5248;47.374;8.486;2023-05-24T13:56:11;11.30;;;8.38;;
10403;SDS011;5248;47.374;8.486;2023-05-24T13:58:39;9.82;;;8.20;;
10403;SDS011;5248;47.374;8.486;2023-05-24T14:01:06;9.43;;;8.53;;
10403;SDS011;5248;47.374;8.486;2023-05-24T14:03:32;9.17;;;8.27;;
10403;SDS011;5248;47.374;8.486;2023-05-24T14:05:59;8.98;;;8.07;;
10403;SDS011;5248;47.374;8.486;2023-05-24T14:08:25;9.00;;;8.07;;
10403;SDS011;5248;47.374;8.486;2023-05-24T14:10:52;11.07;;;7.40;;
10403;SDS011;5248;47.374;8.486;2023-05-24T14:13:18;8.70;;;7.43;;
10403;SDS011;5248;47.374;8.486;2023-05-24T14:15:47;8.60;;;7.33;;
10403;SDS011;5248;47.374;8.486;2023-05-24T14:18:14;7.60;;;6.80;;
10403;SDS011;5248;47.374;8.486;2023-05-24T14:20:41;7.70;;;6.90;;
10403;SDS011;5248;47.374;8.486;2023-05-24T14:23:08;8.60;;;6.87;;
10403;SDS011;5248;47.374;8.486;2023-05-24T14:25:34;9.05;;;7.18;;
10403;SDS011;5248;47.374;8.486;2023-05-24T14:28:01;8.70;;;6.70;;
10403;SDS011;5248;47.374;8.486;2023-05-24T14:30:29;11.10;;;7.03;;
10403;SDS011;5248;47.374;8.486;2023-05-24T14:32:57;7.38;;;6.45;;
10403;SDS011;5248;47.374;8.486;2023-05-24T14:35:24;12.63;;;7.55;;
10403;SDS011;5248;47.374;8.486;2023-05-24T14:37:51;12.50;;;7.10;;
10403;SDS011;5248;47.374;8.486;2023-05-24T14:40:18;9.25;;;6.93;;
10403;SDS011;5248;47.374;8.486;2023-05-24T14:42:48;8.48;;;7.50;;
10403;SDS011;5248;47.374;8.486;2023-05-24T14:45:16;9.35;;;7.43;;
10403;SDS011;5248;47.374;8.486;2023-05-24T14:47:42;9.60;;;7.77;;
10403;SDS011;5248;47.374;8.486;2023-05-24T14:50:10;10.32;;;7.22;;
10403;SDS011;5248;47.374;8.486;2023-05-24T14:52:37;7.60;;;6.70;;